Time;durP1;ratioP1;P1;durP2;ratioP2;P2;SDS_P1;SDS_P2;PMS_P1;PMS_P2;Temp;Humidity;BMP_temperature;BMP_pressure;BME280_temperature;BME280_humidity;BME280_pressure;Samples;Min_cycle;Max_cycle;Signal;HPM_P1;HPM_P2
2021/07/11 00:00:24;;;;;;;5.78;4.00;;;;;;;;;;4363496;32;20101;-73
2021/07/11 00:02:50;;;;;;;6.72;3.85;;;;;;;;;;4349847;32;20101;-72
2021/07/11 00:05:17;;;;;;;7.97;4.03;;;;;;;;;;4363738;32;20116;-73
2021/07/11 00:07:43;;;;;;;8.57;4.03;;;;;;;;;;4363459;32;20100;-73
2021/07/11 00:10:09;;;;;;;14.18;3.90;;;;;;;;;;4363530;32;20122;-72
2021/07/11 00:12:35;;;;;;;7.72;4.22;;;;;;;;;;4363754;32;20083;-73
2021/07/11 00:15:02;;;;;;;7.50;4.00;;;;;;;;;;4363522;32;20110;-73
2021/07/11 00:17:28;;;;;;;12.13;4.20;;;;;;;;;;4349772;32;20090;-73
2021/07/11 00:19:55;;;;;;;4.62;3.95;;;;;;;;;;4349844;32;20472;-73
2021/07/11 00:22:21;;;;;;;6.82;4.53;;;;;;;;;;4349613;32;20110;-72
2021/07/11 00:24:47;;;;;;;10.88;4.90;;;;;;;;;;4363565;32;20155;-73
2021/07/11 00:27:13;;;;;;;5.78;4.53;;;;;;;;;;4363668;32;20121;-73
2021/07/11 00:29:39;;;;;;;8.00;4.65;;;;;;;;;;4363281;32;20512;-73
2021/07/11 00:32:05;;;;;;;8.85;4.53;;;;;;;;;;4349566;32;20133;-73
2021/07/11 00:34:31;;;;;;;5.07;4.45;;;;;;;;;;4363291;32;20114;-73
2021/07/11 00:36:57;;;;;;;6.10;4.72;;;;;;;;;;4363363;32;20140;-73
2021/07/11 00:39:23;;;;;;;5.82;4.20;;;;;;;;;;4363167;32;20244;-72
2021/07/11 00:41:49;;;;;;;5.40;4.65;;;;;;;;;;4363120;32;20102;-73
2021/07/11 00:44:14;;;;;;;6.70;4.43;;;;;;;;;;4363354;32;20212;-73
2021/07/11 00:46:41;;;;;;;13.15;4.30;;;;;;;;;;4363095;32;20117;-72
2021/07/11 00:49:07;;;;;;;8.10;4.35;;;;;;;;;;4337411;32;20208;-72
2021/07/11 00:51:33;;;;;;;6.22;3.90;;;;;;;;;;4362978;32;20259;-72
2021/07/11 00:53:59;;;;;;;10.43;4.25;;;;;;;;;;4337023;32;20125;-73
2021/07/11 00:56:25;;;;;;;7.90;3.83;;;;;;;;;;4363246;32;20521;-72
2021/07/11 00:58:51;;;;;;;11.18;4.07;;;;;;;;;;4349211;32;20626;-72
2021/07/11 01:01:29;;;;;;;6.43;3.92;;;;;;;;;;4349386;32;20124;-73
2021/07/11 01:03:56;;;;;;;6.80;4.22;;;;;;;;;;4363070;32;20508;-72
2021/07/11 01:06:22;;;;;;;10.55;3.75;;;;;;;;;;4363089;32;20125;-72
2021/07/11 01:08:53;;;;;;;5.87;3.72;;;;;;;;;;4363067;32;20511;-72
2021/07/11 01:11:21;;;;;;;34.47;5.40;;;;;;;;;;4337348;32;20187;-73
2021/07/11 01:13:47;;;;;;;7.03;4.05;;;;;;;;;;4349488;32;20106;-73
2021/07/11 01:16:15;;;;;;;5.37;4.12;;;;;;;;;;4349008;32;20449;-73
2021/07/11 01:18:42;;;;;;;7.68;3.92;;;;;;;;;;4336851;32;20106;-73
2021/07/11 01:21:12;;;;;;;6.05;4.40;;;;;;;;;;4349219;32;20137;-73
2021/07/11 01:23:59;;;;;;;6.85;4.07;;;;;;;;;;4362938;32;20113;-73
2021/07/11 01:26:26;;;;;;;5.43;4.45;;;;;;;;;;4338814;32;20125;-73
2021/07/11 01:28:53;;;;;;;7.22;3.55;;;;;;;;;;4362906;32;20184;-73
2021/07/11 01:31:19;;;;;;;5.75;3.58;;;;;;;;;;4336767;32;20106;-73
2021/07/11 01:33:45;;;;;;;5.72;3.42;;;;;;;;;;4349341;32;20121;-73
2021/07/11 01:36:11;;;;;;;8.65;4.00;;;;;;;;;;4336992;32;20115;-73
2021/07/11 01:38:38;;;;;;;6.75;3.67;;;;;;;;;;4349239;32;20110;-73
2021/07/11 01:41:05;;;;;;;4.72;3.72;;;;;;;;;;4348880;32;20197;-73
2021/07/11 01:43:30;;;;;;;9.80;3.70;;;;;;;;;;4349173;32;20168;-73
2021/07/11 01:45:56;;;;;;;10.95;4.07;;;;;;;;;;4336952;32;20449;-73
2021/07/11 01:48:23;;;;;;;8.77;4.18;;;;;;;;;;4362695;32;20138;-73
2021/07/11 01:50:52;;;;;;;5.45;3.80;;;;;;;;;;4349072;32;20190;-73
2021/07/11 01:53:22;;;;;;;4.00;3.60;;;;;;;;;;4349023;32;20137;-73
2021/07/11 01:55:48;;;;;;;7.95;4.05;;;;;;;;;;4348803;32;20109;-73
2021/07/11 01:58:14;;;;;;;4.68;3.65;;;;;;;;;;4336429;32;20117;-73
2021/07/11 02:00:40;;;;;;;4.40;3.70;;;;;;;;;;4362446;32;20440;-73
2021/07/11 02:03:22;;;;;;;7.35;4.30;;;;;;;;;;4362268;32;20179;-73
2021/07/11 02:05:49;;;;;;;6.97;3.83;;;;;;;;;;4348838;32;20509;-73
2021/07/11 02:08:15;;;;;;;8.73;3.70;;;;;;;;;;4362526;32;20094;-73
2021/07/11 02:10:42;;;;;;;5.85;3.42;;;;;;;;;;4348662;32;20429;-73
2021/07/11 02:13:12;;;;;;;11.93;3.90;;;;;;;;;;4348537;32;20140;-73
2021/07/11 02:15:38;;;;;;;4.97;4.07;;;;;;;;;;4362260;32;20109;-73
2021/07/11 02:18:03;;;;;;;5.25;3.72;;;;;;;;;;4336327;32;20129;-73
2021/07/11 02:20:29;;;;;;;11.77;3.62;;;;;;;;;;4336251;32;20215;-73
2021/07/11 02:22:56;;;;;;;11.98;4.30;;;;;;;;;;4348809;32;20117;-73
2021/07/11 02:25:22;;;;;;;5.72;3.67;;;;;;;;;;4348650;32;20477;-73
2021/07/11 02:27:49;;;;;;;6.40;3.90;;;;;;;;;;4362321;32;20113;-73
2021/07/11 02:30:22;;;;;;;4.40;3.50;;;;;;;;;;4347263;32;20197;-73
2021/07/11 02:32:48;;;;;;;6.95;3.92;;;;;;;;;;4362483;32;20094;-76
2021/07/11 02:35:15;;;;;;;9.98;5.32;;;;;;;;;;4336159;32;20128;-77
2021/07/11 02:37:49;;;;;;;11.73;3.70;;;;;;;;;;4336484;32;20121;-77
2021/07/11 02:40:15;;;;;;;4.18;3.50;;;;;;;;;;4335989;32;20520;-77
2021/07/11 02:42:41;;;;;;;4.78;3.83;;;;;;;;;;4336025;32;20169;-76
2021/07/11 02:45:07;;;;;;;6.70;3.78;;;;;;;;;;4362170;32;20141;-77
2021/07/11 02:47:34;;;;;;;5.37;3.70;;;;;;;;;;4348173;32;20141;-76
2021/07/11 02:50:01;;;;;;;5.57;3.90;;;;;;;;;;4348212;32;20102;-76
2021/07/11 02:52:27;;;;;;;6.72;2.95;;;;;;;;;;4336151;32;20110;-76
2021/07/11 02:55:02;;;;;;;3.92;3.53;;;;;;;;;;4323981;32;20124;-76
2021/07/11 02:57:28;;;;;;;9.00;4.28;;;;;;;;;;4361826;32;20106;-77
2021/07/11 02:59:54;;;;;;;4.20;3.42;;;;;;;;;;4348071;32;20144;-75
2021/07/11 03:02:19;;;;;;;6.93;3.60;;;;;;;;;;4348119;32;20091;-76
2021/07/11 03:04:45;;;;;;;5.90;3.92;;;;;;;;;;4348150;32;20129;-76
2021/07/11 03:07:11;;;;;;;4.43;3.45;;;;;;;;;;4335653;32;20582;-76
2021/07/11 03:09:39;;;;;;;5.55;3.50;;;;;;;;;;4348076;32;20201;-76
2021/07/11 03:12:06;;;;;;;4.70;3.92;;;;;;;;;;4361617;32;20178;-76
2021/07/11 03:14:31;;;;;;;9.25;3.92;;;;;;;;;;4362055;32;20106;-76
2021/07/11 03:16:58;;;;;;;3.70;3.08;;;;;;;;;;4335695;32;20536;-76
2021/07/11 03:19:25;;;;;;;3.30;3.00;;;;;;;;;;4335727;32;20126;-76
2021/07/11 03:21:51;;;;;;;3.42;3.03;;;;;;;;;;4361562;32;20181;-76
2021/07/11 03:24:18;;;;;;;6.22;3.70;;;;;;;;;;4335899;32;20098;-75
2021/07/11 03:26:44;;;;;;;5.28;3.65;;;;;;;;;;4335712;32;20205;-77
2021/07/11 03:29:17;;;;;;;5.20;3.60;;;;;;;;;;4348108;32;20222;-76
2021/07/11 03:31:43;;;;;;;5.15;3.60;;;;;;;;;;4347780;32;20103;-76
2021/07/11 03:34:09;;;;;;;4.07;3.28;;;;;;;;;;4335509;32;20117;-76
2021/07/11 03:36:35;;;;;;;4.22;3.53;;;;;;;;;;4335529;32;20116;-76
2021/07/11 03:39:02;;;;;;;7.30;3.40;;;;;;;;;;4347907;32;20121;-76
2021/07/11 03:41:30;;;;;;;3.25;2.95;;;;;;;;;;4348082;32;20103;-77
2021/07/11 03:43:57;;;;;;;5.72;3.92;;;;;;;;;;4337802;32;20109;-77
2021/07/11 03:46:26;;;;;;;5.45;3.97;;;;;;;;;;4349920;32;20168;-77
2021/07/11 03:48:53;;;;;;;5.53;4.15;;;;;;;;;;4349976;32;20113;-76
2021/07/11 03:51:23;;;;;;;5.65;3.92;;;;;;;;;;4350103;32;20110;-76
2021/07/11 03:53:49;;;;;;;3.75;2.92;;;;;;;;;;4350256;32;20109;-76
2021/07/11 03:56:15;;;;;;;4.87;4.03;;;;;;;;;;4337827;32;20090;-76
2021/07/11 03:58:41;;;;;;;7.90;4.03;;;;;;;;;;4349654;32;20098;-76
2021/07/11 04:01:07;;;;;;;6.70;4.12;;;;;;;;;;4337721;32;20194;-76
2021/07/11 04:03:37;;;;;;;3.97;3.58;;;;;;;;;;4363721;32;20129;-76
2021/07/11 04:06:05;;;;;;;2.72;2.53;;;;;;;;;;4338275;32;20173;-76
2021/07/11 04:08:31;;;;;;;5.47;3.78;;;;;;;;;;4337989;32;20116;-76
2021/07/11 04:11:00;;;;;;;3.17;2.87;;;;;;;;;;4363602;32;20125;-76
2021/07/11 04:13:26;;;;;;;5.20;3.55;;;;;;;;;;4349915;32;20101;-76
2021/07/11 04:15:56;;;;;;;4.25;3.80;;;;;;;;;;4337548;32;20274;-76
2021/07/11 04:18:22;;;;;;;4.28;3.70;;;;;;;;;;4337586;32;20192;-76
2021/07/11 04:20:47;;;;;;;5.45;3.60;;;;;;;;;;4337406;32;20539;-76
2021/07/11 04:23:13;;;;;;;4.93;3.90;;;;;;;;;;4337440;32;20193;-76
2021/07/11 04:25:44;;;;;;;3.92;3.35;;;;;;;;;;4337366;32;20136;-75
2021/07/11 04:28:10;;;;;;;4.50;3.33;;;;;;;;;;4350162;32;20465;-76
2021/07/11 04:30:36;;;;;;;3.78;3.30;;;;;;;;;;4337440;32;20138;-76
2021/07/11 04:33:03;;;;;;;8.45;3.72;;;;;;;;;;4349618;32;20137;-76
2021/07/11 04:35:29;;;;;;;5.30;4.25;;;;;;;;;;4349594;32;20086;-76
2021/07/11 04:37:56;;;;;;;6.68;4.00;;;;;;;;;;4349933;32;20425;-75
2021/07/11 04:40:22;;;;;;;4.95;4.10;;;;;;;;;;4337159;32;20125;-75
2021/07/11 04:42:48;;;;;;;4.80;3.78;;;;;;;;;;4363188;32;20121;-76
2021/07/11 04:45:16;;;;;;;6.12;3.53;;;;;;;;;;4349277;32;20525;-76
2021/07/11 04:47:42;;;;;;;4.00;3.60;;;;;;;;;;4349780;32;20098;-76
2021/07/11 04:50:09;;;;;;;3.83;3.50;;;;;;;;;;4349590;32;20201;-76
2021/07/11 04:52:37;;;;;;;3.53;2.50;;;;;;;;;;4349222;32;20404;-75
2021/07/11 04:55:06;;;;;;;3.97;3.03;;;;;;;;;;4337171;32;20120;-75
2021/07/11 04:57:32;;;;;;;4.07;3.53;;;;;;;;;;4362963;32;20087;-75
2021/07/11 04:59:58;;;;;;;4.53;3.40;;;;;;;;;;4363017;32;20141;-76
2021/07/11 05:02:24;;;;;;;5.75;3.50;;;;;;;;;;4362915;32;20202;-76
2021/07/11 05:04:50;;;;;;;2.75;2.55;;;;;;;;;;4363212;32;20126;-75
2021/07/11 05:07:15;;;;;;;3.20;2.90;;;;;;;;;;4349204;32;20282;-74
2021/07/11 05:09:41;;;;;;;6.12;3.45;;;;;;;;;;4349086;32;20547;-74
2021/07/11 05:12:07;;;;;;;3.12;2.83;;;;;;;;;;4363073;32;20496;-73
2021/07/11 05:14:33;;;;;;;3.12;2.83;;;;;;;;;;4363306;32;20145;-76
2021/07/11 05:16:59;;;;;;;2.50;2.25;;;;;;;;;;4363264;32;20114;-73
2021/07/11 05:19:25;;;;;;;3.33;3.03;;;;;;;;;;4363199;32;20121;-74
2021/07/11 05:21:51;;;;;;;4.20;3.80;;;;;;;;;;4363189;32;20129;-73
2021/07/11 05:24:17;;;;;;;3.97;3.58;;;;;;;;;;4362756;32;20118;-73
2021/07/11 05:26:42;;;;;;;3.25;2.40;;;;;;;;;;4362695;32;20106;-76
2021/07/11 05:29:08;;;;;;;3.17;2.53;;;;;;;;;;4349143;32;20126;-77
2021/07/11 05:31:34;;;;;;;3.87;3.47;;;;;;;;;;4349202;32;20183;-76
2021/07/11 05:34:00;;;;;;;4.35;3.22;;;;;;;;;;4362960;32;20131;-77
2021/07/11 05:36:27;;;;;;;3.20;2.90;;;;;;;;;;4336814;32;20536;-79
2021/07/11 05:38:53;;;;;;;4.35;3.28;;;;;;;;;;4349424;32;20113;-78
2021/07/11 05:41:19;;;;;;;6.65;3.62;;;;;;;;;;4362809;32;20556;-78
2021/07/11 05:43:44;;;;;;;3.00;2.70;;;;;;;;;;4362971;32;20133;-73
2021/07/11 05:46:10;;;;;;;2.80;2.55;;;;;;;;;;4362503;32;20189;-76
2021/07/11 05:48:36;;;;;;;2.65;2.45;;;;;;;;;;4362748;32;20217;-69
2021/07/11 05:51:02;;;;;;;4.35;3.10;;;;;;;;;;4362465;32;20564;-76
2021/07/11 05:53:28;;;;;;;3.40;3.10;;;;;;;;;;4348861;32;20110;-77
2021/07/11 05:55:54;;;;;;;1.95;1.85;;;;;;;;;;4348773;32;20097;-77
2021/07/11 05:58:20;;;;;;;5.32;3.08;;;;;;;;;;4362346;32;20104;-75
2021/07/11 06:00:46;;;;;;;5.35;3.00;;;;;;;;;;4362305;32;20130;-74
2021/07/11 06:03:11;;;;;;;3.37;2.55;;;;;;;;;;4348783;32;20113;-73
2021/07/11 06:05:37;;;;;;;3.50;2.83;;;;;;;;;;4362371;32;20213;-76
2021/07/11 06:08:06;;;;;;;2.28;1.95;;;;;;;;;;4348678;32;20107;-76
2021/07/11 06:10:33;;;;;;;14.30;4.97;;;;;;;;;;4362581;32;20219;-76
2021/07/11 06:12:59;;;;;;;20.45;5.25;;;;;;;;;;4362474;32;20102;-77
2021/07/11 06:15:24;;;;;;;16.48;4.00;;;;;;;;;;4349231;32;20166;-72
2021/07/11 06:17:50;;;;;;;5.62;3.20;;;;;;;;;;4362801;32;20140;-78
2021/07/11 06:20:16;;;;;;;6.05;3.33;;;;;;;;;;4362055;32;20135;-70
2021/07/11 06:22:42;;;;;;;12.80;4.43;;;;;;;;;;4362277;32;20127;-69
2021/07/11 06:25:09;;;;;;;7.93;3.97;;;;;;;;;;4362182;32;20129;-69
2021/07/11 06:27:39;;;;;;;9.55;3.22;;;;;;;;;;4362218;32;20178;-69
2021/07/11 06:30:06;;;;;;;14.00;2.75;;;;;;;;;;4362132;32;20111;-68
2021/07/11 06:32:32;;;;;;;2.40;2.10;;;;;;;;;;4362254;32;20160;-68
2021/07/11 06:34:58;;;;;;;3.78;3.35;;;;;;;;;;4348610;32;20130;-72
2021/07/11 06:37:24;;;;;;;3.03;2.62;;;;;;;;;;4348526;32;20094;-74
2021/07/11 06:39:50;;;;;;;3.50;2.40;;;;;;;;;;4361997;32;20499;-71
2021/07/11 06:42:16;;;;;;;4.55;3.10;;;;;;;;;;4361862;32;20136;-72
2021/07/11 06:44:42;;;;;;;4.15;2.78;;;;;;;;;;4362007;32;20614;-72
2021/07/11 06:47:08;;;;;;;3.45;3.05;;;;;;;;;;4362087;32;20110;-71
2021/07/11 06:49:34;;;;;;;3.35;3.05;;;;;;;;;;4362050;32;20097;-71
2021/07/11 06:52:02;;;;;;;7.57;3.35;;;;;;;;;;4361810;32;20117;-72
2021/07/11 06:54:27;;;;;;;4.37;3.03;;;;;;;;;;4361987;32;20185;-71
2021/07/11 06:56:54;;;;;;;3.90;3.05;;;;;;;;;;4361692;32;20118;-71
2021/07/11 06:59:19;;;;;;;4.60;2.58;;;;;;;;;;4361654;32;20198;-70
2021/07/11 07:19:07;;;;;;;3.22;2.28;;;;;;;;;;3808245;37;20190;-77
2021/07/11 07:21:33;;;;;;;4.97;2.90;;;;;;;;;;4389489;32;20115;-76
2021/07/11 07:23:59;;;;;;;3.08;2.78;;;;;;;;;;4388226;32;20530;-77
2021/07/11 07:26:24;;;;;;;4.65;2.40;;;;;;;;;;4373943;32;20132;-77
2021/07/11 07:28:50;;;;;;;4.50;3.05;;;;;;;;;;4374106;32;20441;-80
2021/07/11 07:31:16;;;;;;;3.00;2.65;;;;;;;;;;4372811;32;20117;-74
2021/07/11 07:33:42;;;;;;;3.78;2.30;;;;;;;;;;4373964;32;20106;-74
2021/07/11 07:36:08;;;;;;;3.45;2.37;;;;;;;;;;4372617;32;20554;-73
2021/07/11 07:38:34;;;;;;;2.05;1.85;;;;;;;;;;4373936;32;20117;-74
2021/07/11 07:40:59;;;;;;;2.75;2.50;;;;;;;;;;4374371;32;20250;-73
2021/07/11 07:43:25;;;;;;;3.17;2.55;;;;;;;;;;4388835;32;20098;-73
2021/07/11 07:45:51;;;;;;;5.80;2.90;;;;;;;;;;4388832;32;20183;-72
2021/07/11 07:48:17;;;;;;;2.70;2.33;;;;;;;;;;4388830;32;20183;-73
2021/07/11 07:50:43;;;;;;;6.20;2.20;;;;;;;;;;4388788;32;20118;-73
2021/07/11 07:53:09;;;;;;;3.30;3.00;;;;;;;;;;4388741;32;20142;-73
2021/07/11 07:55:35;;;;;;;1.92;1.70;;;;;;;;;;4388907;32;20117;-73
2021/07/11 07:58:01;;;;;;;5.50;2.62;;;;;;;;;;4388863;32;20194;-74
2021/07/11 08:00:27;;;;;;;4.10;2.80;;;;;;;;;;4375022;32;20201;-70
2021/07/11 08:02:53;;;;;;;3.20;2.90;;;;;;;;;;4388690;32;20125;-70
2021/07/11 08:05:19;;;;;;;4.25;2.50;;;;;;;;;;4388902;32;20118;-71
2021/07/11 08:07:45;;;;;;;2.50;2.12;;;;;;;;;;4374450;32;20125;-71
2021/07/11 08:10:11;;;;;;;3.33;2.28;;;;;;;;;;4388775;32;20130;-70
2021/07/11 08:12:37;;;;;;;2.87;2.60;;;;;;;;;;4388617;32;20526;-71
2021/07/11 08:15:04;;;;;;;2.20;2.00;;;;;;;;;;4388814;32;20205;-72
2021/07/11 08:17:32;;;;;;;2.25;2.05;;;;;;;;;;4373639;32;20210;-71
2021/07/11 08:19:59;;;;;;;2.53;2.28;;;;;;;;;;4364200;32;20110;-70
2021/07/11 08:22:25;;;;;;;2.45;2.25;;;;;;;;;;4363545;32;20213;-73
2021/07/11 08:24:51;;;;;;;2.17;1.73;;;;;;;;;;4349901;32;20138;-68
2021/07/11 08:27:17;;;;;;;6.32;2.30;;;;;;;;;;4363334;32;20110;-66
2021/07/11 08:29:42;;;;;;;3.70;2.58;;;;;;;;;;4363465;32;20604;-66
2021/07/11 08:32:08;;;;;;;7.12;2.72;;;;;;;;;;4363389;32;20527;-66
2021/07/11 08:34:34;;;;;;;2.97;2.22;;;;;;;;;;4363512;32;20570;-66
2021/07/11 08:37:00;;;;;;;1.77;1.67;;;;;;;;;;4349714;32;20124;-66
2021/07/11 08:39:29;;;;;;;3.12;2.75;;;;;;;;;;4349834;32;20121;-67
2021/07/11 08:41:59;;;;;;;2.37;2.17;;;;;;;;;;4365104;32;20592;-65
2021/07/11 08:44:25;;;;;;;2.92;2.60;;;;;;;;;;4378397;32;20092;-67
2021/07/11 08:46:51;;;;;;;2.33;2.10;;;;;;;;;;4378204;32;20121;-69
2021/07/11 08:49:18;;;;;;;4.65;2.67;;;;;;;;;;4364046;32;20715;-66
2021/07/11 08:51:45;;;;;;;2.17;1.95;;;;;;;;;;4351832;32;20125;-66
2021/07/11 08:54:11;;;;;;;3.65;2.30;;;;;;;;;;4378252;32;20110;-66
2021/07/11 08:56:37;;;;;;;3.03;2.20;;;;;;;;;;4352065;32;20113;-66
2021/07/11 08:59:03;;;;;;;6.90;2.08;;;;;;;;;;4378016;32;20121;-66
2021/07/11 09:01:29;;;;;;;9.88;2.85;;;;;;;;;;4378127;32;20214;-66
2021/07/11 09:04:13;;;;;;;6.32;1.95;;;;;;;;;;4378004;32;20125;-66
2021/07/11 09:06:45;;;;;;;1.60;1.50;;;;;;;;;;4364316;32;20202;-66
2021/07/11 09:09:21;;;;;;;2.60;2.40;;;;;;;;;;4378158;32;20243;-64
2021/07/11 09:11:49;;;;;;;1.77;1.67;;;;;;;;;;4377915;32;20130;-66
2021/07/11 09:14:19;;;;;;;2.42;1.98;;;;;;;;;;4364110;32;20150;-66
2021/07/11 09:16:45;;;;;;;2.72;2.17;;;;;;;;;;4377842;32;20184;-66
2021/07/11 09:19:50;;;;;;;4.68;1.75;;;;;;;;;;4377885;32;20117;-66
2021/07/11 09:22:24;;;;;;;1.77;1.67;;;;;;;;;;4375047;32;20126;-66
2021/07/11 09:24:54;;;;;;;2.28;1.73;;;;;;;;;;4377950;32;20109;-66
2021/07/11 09:27:25;;;;;;;5.18;1.80;;;;;;;;;;4352126;32;20214;-66
2021/07/11 09:29:51;;;;;;;3.42;2.08;;;;;;;;;;4377688;32;20120;-66
2021/07/11 09:32:28;;;;;;;2.90;2.20;;;;;;;;;;4377429;32;20187;-67
2021/07/11 09:34:54;;;;;;;3.28;2.20;;;;;;;;;;4378067;32;20109;-72
2021/07/11 09:37:21;;;;;;;3.25;1.92;;;;;;;;;;4364048;32;20396;-72
2021/07/11 09:39:52;;;;;;;4.95;2.37;;;;;;;;;;4351798;32;20444;-72
2021/07/11 09:42:27;;;;;;;2.22;2.03;;;;;;;;;;4377634;32;20614;-74
2021/07/11 09:44:53;;;;;;;3.08;2.10;;;;;;;;;;4377717;32;20105;-73
2021/07/11 09:47:21;;;;;;;2.03;1.83;;;;;;;;;;4351470;32;20128;-73
2021/07/11 09:50:08;;;;;;;1.80;1.70;;;;;;;;;;4364047;32;20194;-73
2021/07/11 09:52:35;;;;;;;2.85;1.95;;;;;;;;;;4377531;32;20105;-73
2021/07/11 09:55:17;;;;;;;5.75;1.85;;;;;;;;;;4377699;32;20529;-72
2021/07/11 09:57:48;;;;;;;2.75;1.95;;;;;;;;;;4377923;32;20109;-72
2021/07/11 10:00:45;;;;;;;5.70;2.22;;;;;;;;;;4377640;32;20122;-71
2021/07/11 10:03:12;;;;;;;1.75;1.65;;;;;;;;;;4366115;32;20106;-69
2021/07/11 10:05:39;;;;;;;1.98;1.87;;;;;;;;;;4351743;32;20086;-68
2021/07/11 10:08:05;;;;;;;2.83;2.40;;;;;;;;;;4377245;32;20203;-70
2021/07/11 10:10:33;;;;;;;2.55;2.35;;;;;;;;;;4377776;32;20128;-71
2021/07/11 10:13:00;;;;;;;2.42;1.83;;;;;;;;;;4351498;32;20144;-72
2021/07/11 10:15:27;;;;;;;4.68;1.90;;;;;;;;;;4377600;32;20445;-73
2021/07/11 10:18:02;;;;;;;5.05;2.17;;;;;;;;;;4363520;32;20134;-69
2021/07/11 10:20:36;;;;;;;5.62;1.87;;;;;;;;;;4351961;32;20200;-72
2021/07/11 10:23:03;;;;;;;5.73;2.30;;;;;;;;;;4351298;32;20443;-70
2021/07/11 10:25:29;;;;;;;2.75;2.20;;;;;;;;;;4377547;32;20170;-69
2021/07/11 10:28:07;;;;;;;4.12;2.80;;;;;;;;;;4377392;32;20124;-68
2021/07/11 10:30:33;;;;;;;4.87;2.12;;;;;;;;;;4377465;32;20193;-69
2021/07/11 10:33:16;;;;;;;2.25;2.05;;;;;;;;;;4377500;32;20137;-69
2021/07/11 10:35:59;;;;;;;2.15;2.03;;;;;;;;;;4363790;32;20113;-70
2021/07/11 10:38:39;;;;;;;2.37;2.17;;;;;;;;;;4363530;32;20110;-69
2021/07/11 10:41:09;;;;;;;2.28;2.08;;;;;;;;;;4377464;32;20527;-75
2021/07/11 10:43:35;;;;;;;2.45;2.25;;;;;;;;;;4363007;32;20135;-74
2021/07/11 10:46:01;;;;;;;3.53;2.12;;;;;;;;;;4363365;32;20208;-68
2021/07/11 10:48:28;;;;;;;5.28;2.00;;;;;;;;;;4376986;32;20468;-67
2021/07/11 10:50:54;;;;;;;3.17;2.87;;;;;;;;;;4377134;32;20496;-67
2021/07/11 10:53:20;;;;;;;2.25;2.05;;;;;;;;;;4377058;32;20122;-70
2021/07/11 10:55:46;;;;;;;4.22;2.17;;;;;;;;;;4363310;32;20440;-70
2021/07/11 10:58:16;;;;;;;2.95;2.20;;;;;;;;;;4376947;32;20120;-70
2021/07/11 11:00:42;;;;;;;2.33;2.12;;;;;;;;;;4377121;32;20192;-70
2021/07/11 11:03:19;;;;;;;2.62;2.37;;;;;;;;;;4377332;32;20497;-70
2021/07/11 11:05:49;;;;;;;3.65;2.20;;;;;;;;;;4377111;32;20116;-70
2021/07/11 11:08:17;;;;;;;5.28;2.10;;;;;;;;;;4363178;32;20275;-70
2021/07/11 11:10:44;;;;;;;2.42;1.98;;;;;;;;;;4363148;32;20082;-73
2021/07/11 11:13:12;;;;;;;3.17;2.15;;;;;;;;;;4377042;32;20118;-71
2021/07/11 11:15:55;;;;;;;3.90;2.62;;;;;;;;;;4351216;32;20129;-70
2021/07/11 11:18:30;;;;;;;2.60;1.87;;;;;;;;;;4376755;32;20129;-68
2021/07/11 11:21:18;;;;;;;2.75;2.47;;;;;;;;;;4377103;32;20152;-70
2021/07/11 11:23:54;;;;;;;3.35;2.00;;;;;;;;;;4377018;32;20106;-67
2021/07/11 11:26:24;;;;;;;3.05;2.20;;;;;;;;;;4363015;32;20148;-68
2021/07/11 11:28:51;;;;;;;2.55;2.15;;;;;;;;;;4376182;32;20098;-68
2021/07/11 11:31:17;;;;;;;2.53;1.90;;;;;;;;;;4376935;32;20113;-69
2021/07/11 11:34:00;;;;;;;2.30;2.10;;;;;;;;;;4376683;32;20137;-69
2021/07/11 11:36:35;;;;;;;1.70;1.60;;;;;;;;;;4363928;32;20118;-67
2021/07/11 11:39:05;;;;;;;;;;;;;;;;;;4376971;32;20186;-68
2021/07/11 11:41:31;;;;;;;2.53;1.92;;;;;;;;;;4350598;32;19984;-70
2021/07/11 11:44:24;;;;;;;2.58;1.73;;;;;;;;;;4362477;32;20094;-69
2021/07/11 11:46:51;;;;;;;2.70;2.20;;;;;;;;;;4359290;32;20113;-75
2021/07/11 11:49:19;;;;;;;2.50;2.30;;;;;;;;;;4362492;32;20442;-76
2021/07/11 11:51:52;;;;;;;2.42;2.15;;;;;;;;;;4350372;32;20468;-70
2021/07/11 11:54:24;;;;;;;7.18;2.75;;;;;;;;;;4377367;32;20100;-67
2021/07/11 11:56:50;;;;;;;2.20;1.98;;;;;;;;;;4378656;32;20094;-70
2021/07/11 11:59:16;;;;;;;4.82;2.00;;;;;;;;;;4378753;32;20141;-72
2021/07/11 12:01:41;;;;;;;2.95;2.20;;;;;;;;;;4365025;32;20196;-68
2021/07/11 12:04:10;;;;;;;2.42;2.20;;;;;;;;;;4364889;32;20133;-70
2021/07/11 12:06:36;;;;;;;3.37;2.20;;;;;;;;;;4365065;32;20117;-67
2021/07/11 12:09:02;;;;;;;1.98;1.83;;;;;;;;;;4364797;32;20148;-68
2021/07/11 12:11:28;;;;;;;3.20;2.40;;;;;;;;;;4378715;32;20127;-68
2021/07/11 12:14:12;;;;;;;2.35;2.15;;;;;;;;;;4378636;32;20137;-68
2021/07/11 12:16:39;;;;;;;5.03;2.25;;;;;;;;;;4365977;32;20114;-67
2021/07/11 12:19:06;;;;;;;4.03;2.20;;;;;;;;;;4378410;32;20182;-68
2021/07/11 12:21:33;;;;;;;4.15;1.80;;;;;;;;;;4364818;32;20526;-68
2021/07/11 12:24:00;;;;;;;3.97;2.28;;;;;;;;;;4378488;32;20125;-69
2021/07/11 12:26:27;;;;;;;2.70;2.10;;;;;;;;;;4364539;32;20169;-69
2021/07/11 12:28:53;;;;;;;3.03;2.10;;;;;;;;;;4364675;32;20117;-69
2021/07/11 12:31:23;;;;;;;4.62;2.62;;;;;;;;;;4364616;32;20125;-69
2021/07/11 12:33:55;;;;;;;2.85;2.28;;;;;;;;;;4364371;32;20190;-69
2021/07/11 12:36:21;;;;;;;1.92;1.77;;;;;;;;;;4364619;32;20108;-66
2021/07/11 12:38:47;;;;;;;2.03;1.83;;;;;;;;;;4378313;32;20086;-69
2021/07/11 12:41:13;;;;;;;2.87;2.50;;;;;;;;;;4378318;32;20121;-67
2021/07/11 12:43:49;;;;;;;3.65;2.12;;;;;;;;;;4378131;32;20085;-66
2021/07/11 12:46:22;;;;;;;2.78;2.33;;;;;;;;;;4364523;32;20509;-67
2021/07/11 12:48:50;;;;;;;2.40;2.15;;;;;;;;;;4378219;32;20122;-65
2021/07/11 12:51:23;;;;;;;3.78;1.70;;;;;;;;;;4378176;32;20094;-65
2021/07/11 12:54:10;;;;;;;3.62;2.40;;;;;;;;;;4378080;32;20176;-65
2021/07/11 12:56:38;;;;;;;2.00;1.85;;;;;;;;;;4367441;32;20206;-66
2021/07/11 12:59:05;;;;;;;2.45;1.80;;;;;;;;;;4378335;32;20124;-70
2021/07/11 13:01:31;;;;;;;2.50;2.03;;;;;;;;;;4364683;32;20125;-72
2021/07/11 13:03:59;;;;;;;2.28;2.08;;;;;;;;;;4364323;32;20113;-73
2021/07/11 13:06:38;;;;;;;3.30;2.15;;;;;;;;;;4339751;32;20510;-73
2021/07/11 13:09:05;;;;;;;3.17;2.55;;;;;;;;;;4352598;32;20122;-74
2021/07/11 13:11:31;;;;;;;2.75;2.53;;;;;;;;;;4364296;32;20124;-74
2021/07/11 13:13:57;;;;;;;3.42;2.00;;;;;;;;;;4364412;32;20168;-72
2021/07/11 13:16:23;;;;;;;3.62;2.10;;;;;;;;;;4378113;32;20125;-72
2021/07/11 13:18:49;;;;;;;3.55;2.22;;;;;;;;;;4377993;32;20117;-68
2021/07/11 13:21:15;;;;;;;3.17;2.22;;;;;;;;;;4378254;32;20131;-69
2021/07/11 13:23:41;;;;;;;2.60;2.40;;;;;;;;;;4364159;32;20136;-69
2021/07/11 13:26:07;;;;;;;4.50;2.25;;;;;;;;;;4351976;32;20548;-68
2021/07/11 13:28:32;;;;;;;2.47;2.28;;;;;;;;;;4377801;32;20114;-68
2021/07/11 13:30:58;;;;;;;3.35;2.40;;;;;;;;;;4364319;32;20120;-70
2021/07/11 13:33:24;;;;;;;10.45;3.62;;;;;;;;;;4364328;32;20101;-67
2021/07/11 13:35:50;;;;;;;1.90;1.80;;;;;;;;;;4378139;32;20149;-71
2021/07/11 13:38:16;;;;;;;3.58;2.20;;;;;;;;;;4377837;32;20510;-71
2021/07/11 13:40:43;;;;;;;3.30;3.00;;;;;;;;;;4339420;32;20124;-73
2021/07/11 13:43:09;;;;;;;2.45;2.10;;;;;;;;;;4377813;32;20533;-80
2021/07/11 13:45:36;;;;;;;2.97;2.60;;;;;;;;;;4364042;32;20117;-74
2021/07/11 13:48:02;;;;;;;6.82;3.10;;;;;;;;;;4378000;32;20129;-80
2021/07/11 13:50:28;;;;;;;2.05;1.85;;;;;;;;;;4378258;32;20202;-74
2021/07/11 13:52:54;;;;;;;2.33;2.10;;;;;;;;;;4351496;32;20117;-73
2021/07/11 13:55:20;;;;;;;2.53;2.33;;;;;;;;;;4377675;32;20137;-74
2021/07/11 13:57:47;;;;;;;4.10;2.35;;;;;;;;;;4377682;32;20129;-74
2021/07/11 14:00:13;;;;;;;5.10;2.25;;;;;;;;;;4377710;32;20124;-71
2021/07/11 14:02:39;;;;;;;2.25;1.87;;;;;;;;;;4377861;32;20110;-69
2021/07/11 14:05:05;;;;;;;3.20;2.42;;;;;;;;;;4377543;32;20121;-72
2021/07/11 14:07:31;;;;;;;2.78;2.15;;;;;;;;;;4377370;32;20137;-72
2021/07/11 14:09:57;;;;;;;4.53;2.67;;;;;;;;;;4377502;32;20133;-71
2021/07/11 14:12:23;;;;;;;2.95;2.28;;;;;;;;;;4377484;32;20260;-72
2021/07/11 14:14:49;;;;;;;4.87;2.15;;;;;;;;;;4363904;32;20125;-71
2021/07/11 14:17:15;;;;;;;1.85;1.75;;;;;;;;;;4376836;32;20106;-72
2021/07/11 14:19:41;;;;;;;1.98;1.77;;;;;;;;;;4377670;32;20093;-72
2021/07/11 14:22:07;;;;;;;3.30;2.45;;;;;;;;;;4377685;32;20110;-67
2021/07/11 14:24:33;;;;;;;2.58;2.15;;;;;;;;;;4377304;32;20524;-70
2021/07/11 14:26:59;;;;;;;4.87;2.30;;;;;;;;;;4377229;32;20449;-72
2021/07/11 14:29:25;;;;;;;3.78;2.45;;;;;;;;;;4377280;32;20117;-72
2021/07/11 14:31:51;;;;;;;1.70;1.60;;;;;;;;;;4377469;32;20101;-70
2021/07/11 14:34:17;;;;;;;1.85;1.70;;;;;;;;;;4377481;32;20214;-70
2021/07/11 14:36:43;;;;;;;2.22;1.90;;;;;;;;;;4377037;32;20476;-71
2021/07/11 14:39:09;;;;;;;2.87;2.05;;;;;;;;;;4377141;32;20226;-70
2021/07/11 14:41:35;;;;;;;1.80;1.67;;;;;;;;;;4377135;32;20128;-71
2021/07/11 14:44:00;;;;;;;2.42;2.22;;;;;;;;;;4377062;32;20113;-72
2021/07/11 14:46:26;;;;;;;2.28;2.08;;;;;;;;;;4377504;32;20493;-71
2021/07/11 14:48:52;;;;;;;4.75;2.45;;;;;;;;;;4377037;32;20105;-73
2021/07/11 14:51:18;;;;;;;4.05;2.28;;;;;;;;;;4377147;32;20184;-73
2021/07/11 14:53:44;;;;;;;5.93;2.10;;;;;;;;;;4377083;32;20613;-74
2021/07/11 14:56:10;;;;;;;3.85;2.47;;;;;;;;;;4377395;32;20556;-74
2021/07/11 14:58:36;;;;;;;1.60;1.50;;;;;;;;;;4377037;32;20125;-67
2021/07/11 15:01:03;;;;;;;1.70;1.60;;;;;;;;;;4363131;32;20120;-69
2021/07/11 15:03:29;;;;;;;1.48;1.37;;;;;;;;;;4376606;32;20457;-68